Weather observations for the past three days for
Comox, B. C.
Metric (Imperial)
Date Time (pdt) Wind (kph) Vis. (km) Weather Sky Cond. Temperature (ºC) Relative Humidity Wind Chill (°C) Heat Index (°C) Pressure Precipitation (cm)
Air Dwpt 6 hour altimeter (cm) sea level (mb) 1 hr 3 hr 6 hr
Max. Min.
08 23:00 S 11 32.19 A Few Clouds FEW070 12 7 72% 76.61 1021.3
08 22:00 SE 17 32.19 A Few Clouds FEW070 12 8 77% 76.58 1021.1
08 21:00 SE 22 32.19 A Few Clouds FEW070 13 7 67% 76.53 1020.4
08 20:00 SE 17 32.19 Partly Cloudy SCT070 14 8 67% 76.5 1019.9
08 19:00 SE 19 G 28 32.19 Partly Cloudy SCT070 16 7 55% 76.45 1019.4
08 18:00 SE 22 32.19 Mostly Cloudy BKN075 16 7 55% 76.45 1019.2
08 17:00 SE 31 G 44 32.19 Mostly Cloudy BKN070 16 7 55% 76.43 1019.0
08 16:00 SE 33 G 44 32.19 Mostly Cloudy and Breezy SCT080 BKN140 16 7 55% 76.43 1018.9
08 15:00 SE 26 G 35 32.19 Mostly Cloudy BKN090 17 6 49% 76.38 1018.4
08 14:00 SE 24 32.19 Mostly Cloudy FEW080 BKN100 18 5 43% 76.38 1018.3
08 13:00 SE 20 32.19 Overcast FEW100 OVC160 16 6 52% 76.35 1017.9
08 12:00 E 6 32.19 Overcast FEW110 OVC140 17 5 45% 76.3 1017.4
08 11:00 E 13 32.19 Overcast FEW110 OVC160 15 8 63% 76.28 1017.1
08 10:00 E 7 24.14 Overcast FEW030 FEW090 OVC160 15 7 59% 76.25 1016.6
08 09:00 SE 7 24.14 Overcast FEW055 FEW090 OVC180 15 9 68% 76.23 1016.2
08 08:00 S 6 24.14 Overcast FEW050 OVC180 14 8 67% 76.17 1015.6
08 07:00 S 6 24.14 Overcast SCT050 OVC180 13 9 77% 76.12 1015.0
08 06:00 SE 11 24.14 Overcast BKN048 BKN065 OVC180 13 9 77% 76.12 1014.9
08 05:00 S 7 32.19 Overcast BKN053 OVC150 13 10 82% 76.12 1014.8
08 04:00 S 20 32.19 Overcast OVC062 13 11 88% 76.1 1014.6
08 03:00 SE 13 32.19 Overcast OVC060 14 11 82% 76.1 1014.6
08 02:00 S 17 32.19 Overcast OVC060 14 10 77% 76.1 1014.7
08 01:00 S 4 32.19 Overcast SCT140 OVC160 14 10 77% 76.1 1014.8
08 00:00 SE 15 32.19 Mostly Cloudy BKN180 13 11 88% 76.12 1015.0
07 23:00 E 4 32.19 Mostly Cloudy SCT190 BKN230 13 11 88% 76.15 1015.3
07 22:00 S 7 32.19 A Few Clouds FEW230 13 10 82% 76.15 1015.4
07 21:00 S 7 32.19 Mostly Cloudy BKN230 14 9 72% 76.15 1015.3
07 20:00 SE 7 32.19 Partly Cloudy SCT220 15 10 72% 76.17 1015.5
07 19:00 SE 13 32.19 Partly Cloudy SCT250 16 9 63% 76.2 1015.9
07 18:00 SE 9 32.19 A Few Clouds FEW250 18 8 52% 76.23 1016.4
07 17:00 SE 9 32.19 A Few Clouds FEW060 FEW250 18 8 52% 76.28 1016.9
07 16:00 SE 9 32.19 A Few Clouds FEW060 FEW250 19 8 49% 76.33 1017.5
07 15:00 E 11 32.19 A Few Clouds FEW060 FEW250 18 8 52% 76.35 1018.1
07 14:00 E 7 32.19 Partly Cloudy FEW060 SCT250 16 7 55% 76.43 1018.8
07 13:00 NE 7 32.19 A Few Clouds FEW060 FEW250 15 7 59% 76.48 1019.7
07 12:00 N 11 32.19 A Few Clouds FEW060 FEW250 15 6 55% 76.53 1020.2
07 11:00 N 13 32.19 A Few Clouds FEW060 FEW250 13 6 63% 76.56 1020.7
07 10:00 N 17 G 28 32.19 A Few Clouds FEW040 FEW250 13 6 63% 76.58 1021.1
07 09:00 NW 22 24.14 A Few Clouds FEW035 12 6 67% 76.61 1021.3
07 08:00 NW 19 G 28 24.14 A Few Clouds FEW035 11 5 67% 76.61 1021.3
07 07:00 NW 13 32.19 A Few Clouds FEW035 10 4 67% 8 76.61 1021.3
07 06:00 NW 15 24.14 Mostly Cloudy BKN036 10 4 67% 8 76.61 1021.3
07 05:00 NW 6 32.19 Mostly Cloudy BKN038 10 4 67% 76.61 1021.3
07 04:00 NW 13 32.19 Overcast OVC036 10 4 67% 8 76.61 1021.3
07 03:00 NW 13 32.19 Overcast OVC036 11 4 62% 76.61 1021.4
07 02:00 NW 13 32.19 Mostly Cloudy BKN037 11 5 67% 76.58 1021.1
07 01:00 NW 15 32.19 Mostly Cloudy BKN038 BKN060 11 6 72% 76.56 1020.8
07 00:00 N 22 32.19 Mostly Cloudy BKN040 BKN070 12 7 72% 76.53 1020.4
06 23:00 N 20 G 30 32.19 Mostly Cloudy SCT050 BKN070 12 7 72% 76.53 1020.2
06 22:00 N 17 32.19 Mostly Cloudy FEW045 BKN065 14 9 72% 76.5 1020.0
06 21:00 S 4 32.19 Mostly Cloudy SCT042 BKN065 14 11 82% 76.48 1019.5
06 20:00 SE 6 32.19 Mostly Cloudy BKN065 14 11 82% 76.45 1019.3
06 19:00 SE 7 32.19 Mostly Cloudy BKN065 15 11 77% 76.45 1019.4
06 18:00 SE 9 32.19 Mostly Cloudy BKN055 15 10 72% 76.45 1019.4
06 17:00 SE 9 32.19 Mostly Cloudy FEW025 BKN055 15 11 77% 76.45 1019.3
06 16:00 SE 13 32.19 Overcast OVC055 16 10 68% 76.48 1019.6
06 15:00 SE 9 32.19 Overcast OVC055 15 10 72% 76.48 1019.8
06 14:00 E 11 24.14 Overcast FEW025 OVC055 16 10 68% 76.48 1019.8
06 13:00 NE 9 24.14 Overcast OVC020 15 8 63% 76.48 1019.8
06 12:00 N 11 24.14 Overcast OVC020 14 8 67% 76.48 1019.7
06 11:00 N 11 24.14 Overcast OVC020 13 8 72% 76.45 1019.3
06 10:00 NW 17 19.31 Overcast OVC021 13 8 72% 76.45 1019.3
06 09:00 N 17 19.31 Overcast OVC017 12 8 77% 76.43 1019.1
06 08:00 N 17 24.14 Overcast OVC016 13 10 82% 76.4 1018.6
06 07:00 N 11 24.14 Overcast OVC014 12 10 88% 76.35 1018.0
06 06:00 NW 9 24.14 Mostly Cloudy FEW020 FEW050 SCT180 BKN250 11 10 94% 76.3 1017.3
06 05:00 N 9 32.19 Partly Cloudy SCT250 11 10 94% 76.28 1017.0
06 04:00 NW 9 32.19 A Few Clouds FEW250 11 10 94% 76.25 1016.5
06 03:00 NW 7 32.19 Clear SKC 12 10 88% 76.23 1016.2
06 02:00 Calm 32.19 Clear SKC 12 10 88% 76.2 1015.8
06 01:00 W 4 32.19 Clear SKC 13 11 88% 76.17 1015.5
Date Time (pdt) Wind (kph) Vis. (km) Weather Sky Cond. Air Dwpt Max. Min. Relative Humidity Wind Chill (°C) Heat Index (°C) altimeter (cm) sea level (mb) 1 hr 3 hr 6 hr
6 hour
Temperature (ºC) Pressure Precipitation (cm)